Vandenberg Range, California
Current Conditions -  °F | °C
As of 11:55 AM on Saturday 25 Oct 2014 (Local Time) from KVBG Reporting Station
Clear Clear  
Wind Chill: 73°   Ceiling: Unl
Heat Index: 73°   Visibility: 10mi
Dew Point: 56°   Wind: 9mph
Humidity: 55%   Direction: 270°W
Pressure: 30.11"   Gusts: NA
Location:  34.75°N, 120.56°W
Report Text: KVBG 251855Z AUTO 27008KT 10SM CLR 23/13 A3011 RMK AO2 SLP185 T02280133 TSNO $
Loading
Personal Weather Stations






























Interactive Weather Map
Tropical Storm Tracking
New forecast layout! Learn more

10-Day Weather Forecast

Advertisements
Track Severe Weather on mobile